Time;durP1;ratioP1;P1;durP2;ratioP2;P2;SDS_P1;SDS_P2;PMS_P1;PMS_P2;Temp;Humidity;BMP_temperature;BMP_pressure;BME280_temperature;BME280_humidity;BME280_pressure;Samples;Min_cycle;Max_cycle;Signal;HPM_P1;HPM_P2
2023/11/23 00:00:27;;;;;;;;;17.75;15.00;;;;;10.89;58.29;102375.28;5069084;27;45402;-58
2023/11/23 00:02:52;;;;;;;;;20.25;12.00;;;;;10.90;58.39;102373.50;5082159;27;45648;-58
2023/11/23 00:05:19;;;;;;;;;11.50;11.25;;;;;10.90;58.41;102370.91;5097561;27;73035;-58
2023/11/23 00:07:45;;;;;;;;;11.00;9.75;;;;;10.91;58.51;102373.50;5094196;27;45811;-58
2023/11/23 00:10:11;;;;;;;;;10.75;8.00;;;;;10.91;58.74;102367.41;5096186;27;45489;-59
2023/11/23 00:12:36;;;;;;;;;17.75;10.50;;;;;10.87;58.84;102363.94;5095965;27;73916;-59
2023/11/23 00:15:02;;;;;;;;;14.50;9.50;;;;;10.86;58.71;102358.69;5097224;27;71531;-59
2023/11/23 00:17:29;;;;;;;;;12.50;10.25;;;;;10.88;58.75;102360.41;5099135;27;45279;-59
2023/11/23 00:19:54;;;;;;;;;14.00;10.25;;;;;10.89;58.91;102361.28;5098738;27;45308;-59
2023/11/23 00:22:21;;;;;;;;;15.00;12.25;;;;;10.89;59.08;102361.28;5098702;27;45426;-59
2023/11/23 00:24:46;;;;;;;;;13.50;11.75;;;;;10.89;59.29;102359.56;5097630;27;47149;-58
2023/11/23 00:27:14;;;;;;;;;13.75;11.75;;;;;10.93;59.59;102355.19;5089130;27;45470;-59
2023/11/23 00:29:40;;;;;;;;;13.50;12.25;;;;;10.94;59.76;102338.56;5098552;27;45506;-59
2023/11/23 00:32:07;;;;;;;;;9.75;9.75;;;;;10.92;60.05;102337.72;5082864;27;48987;-59
2023/11/23 00:34:32;;;;;;;;;15.50;11.00;;;;;10.89;60.40;102333.38;5098803;27;46044;-58
2023/11/23 00:36:58;;;;;;;;;11.00;10.00;;;;;10.90;60.87;102324.63;5099458;27;45328;-59
2023/11/23 00:39:23;;;;;;;;;16.25;11.00;;;;;10.89;61.43;102330.75;5097939;27;69216;-59
2023/11/23 00:41:49;;;;;;;;;13.50;10.25;;;;;10.89;61.67;102329.84;5100963;27;45347;-59
2023/11/23 00:44:14;;;;;;;;;13.00;11.50;;;;;10.89;61.39;102327.22;5099558;27;45795;-58
2023/11/23 00:46:40;;;;;;;;;15.25;12.00;;;;;10.87;61.56;102322.03;5081920;27;54386;-59
2023/11/23 00:49:05;;;;;;;;;12.50;12.25;;;;;10.90;61.83;102321.13;5100944;27;45401;-58
2023/11/23 00:51:32;;;;;;;;;9.75;8.00;;;;;10.91;62.45;102299.31;5098982;27;45284;-59
2023/11/23 00:53:58;;;;;;;;;12.75;9.25;;;;;10.90;62.03;102308.03;5097985;27;46186;-59
2023/11/23 00:56:23;;;;;;;;;16.50;12.00;;;;;10.89;62.36;102304.56;5098946;27;45435;-59
2023/11/23 00:58:48;;;;;;;;;11.50;10.00;;;;;10.89;62.62;102308.91;5080723;27;45442;-58
2023/11/23 01:01:18;;;;;;;;;14.50;11.75;;;;;10.90;62.51;102297.56;5099743;27;45478;-59
2023/11/23 01:03:44;;;;;;;;;14.25;13.00;;;;;10.92;62.31;102294.03;5099576;27;46048;-59
2023/11/23 01:06:09;;;;;;;;;10.75;10.00;;;;;10.95;62.29;102288.81;5095638;27;45825;-59
2023/11/23 01:08:35;;;;;;;;;17.50;12.50;;;;;10.96;62.50;102277.47;5089441;27;45213;-59
2023/11/23 01:11:01;;;;;;;;;10.50;9.75;;;;;10.97;62.33;102280.94;5088076;27;70363;-59
2023/11/23 01:13:27;;;;;;;;;14.75;11.50;;;;;10.97;62.47;102291.41;5078954;27;46187;-58
2023/11/23 01:15:52;;;;;;;;;12.75;9.75;;;;;10.96;62.86;102301.03;5099616;27;45382;-59
2023/11/23 01:18:18;;;;;;;;;14.50;11.50;;;;;10.94;62.79;102287.06;5100677;27;45366;-59
2023/11/23 01:20:43;;;;;;;;;16.50;12.00;;;;;10.94;62.66;102283.56;5079822;27;45535;-59
2023/11/23 01:23:09;;;;;;;;;17.50;11.00;;;;;10.93;62.96;102287.06;5098571;27;45281;-59
2023/11/23 01:25:35;;;;;;;;;17.00;12.00;;;;;10.93;62.80;102295.81;5097223;27;45394;-58
2023/11/23 01:28:00;;;;;;;;;11.00;10.25;;;;;10.91;62.69;102294.06;5083173;27;45326;-59
2023/11/23 01:30:26;;;;;;;;;14.50;13.75;;;;;10.92;62.98;102296.66;5092059;27;45413;-59
2023/11/23 01:32:52;;;;;;;;;16.00;10.50;;;;;10.93;62.70;102300.19;5098911;27;75505;-59
2023/11/23 01:35:20;;;;;;;;;15.50;13.00;;;;;10.93;62.97;102297.56;5082237;27;45696;-63
2023/11/23 01:37:46;;;;;;;;;18.25;11.75;;;;;10.94;63.06;102289.69;5089770;27;45455;-59
2023/11/23 01:40:11;;;;;;;;;21.75;14.50;;;;;10.96;62.69;102303.66;5100605;27;45512;-58
2023/11/23 01:42:37;;;;;;;;;15.50;12.50;;;;;10.94;62.63;102297.56;5098892;27;46136;-59
2023/11/23 01:45:02;;;;;;;;;17.00;12.25;;;;;10.94;63.07;102308.03;5099713;27;45282;-59
2023/11/23 01:47:28;;;;;;;;;12.25;10.50;;;;;10.96;62.81;102314.13;5100269;27;45765;-59
2023/11/23 01:49:54;;;;;;;;;12.75;9.75;;;;;10.96;62.88;102308.91;5063977;27;73966;-59
2023/11/23 01:52:19;;;;;;;;;15.25;13.25;;;;;10.97;62.81;102317.63;5079952;27;46192;-59
2023/11/23 01:54:44;;;;;;;;;8.75;8.00;;;;;10.97;62.76;102322.84;5081665;27;50920;-58
2023/11/23 01:57:11;;;;;;;;;14.50;10.50;;;;;10.95;63.03;102315.00;5098807;27;69395;-59
2023/11/23 01:59:37;;;;;;;;;15.75;12.00;;;;;10.94;62.85;102312.38;5100049;27;52312;-59
2023/11/23 02:02:03;;;;;;;;;11.25;10.50;;;;;10.94;63.11;102313.28;5076988;27;53680;-59
2023/11/23 02:04:29;;;;;;;;;12.75;10.25;;;;;10.92;62.98;102308.91;5098942;27;45816;-59
2023/11/23 02:06:54;;;;;;;;;16.25;14.50;;;;;10.95;63.23;102319.38;5089636;27;66105;-59
2023/11/23 02:09:20;;;;;;;;;11.50;9.75;;;;;10.94;63.07;102309.75;5090311;27;73152;-58
2023/11/23 02:11:46;;;;;;;;;12.25;9.75;;;;;10.94;63.10;102313.28;5096662;27;75523;-59
2023/11/23 02:14:11;;;;;;;;;12.25;11.25;;;;;10.95;63.72;102324.63;5097676;27;73350;-60
2023/11/23 02:16:37;;;;;;;;;12.25;9.75;;;;;10.95;63.58;102315.00;5083667;27;45630;-59
2023/11/23 02:19:04;;;;;;;;;16.75;12.00;;;;;10.95;63.32;102319.38;5101881;27;45527;-60
2023/11/23 02:21:29;;;;;;;;;12.50;12.50;;;;;10.97;63.25;102318.47;5083546;27;46615;-58
2023/11/23 02:23:55;;;;;;;;;10.25;9.00;;;;;10.97;63.64;102328.09;5101379;27;45266;-59
2023/11/23 02:26:20;;;;;;;;;13.50;9.00;;;;;10.97;63.45;102323.72;5095235;27;69344;-59
2023/11/23 02:28:45;;;;;;;;;16.75;12.50;;;;;10.97;63.43;102330.72;5092841;27;71299;-59
2023/11/23 02:31:11;;;;;;;;;16.75;13.75;;;;;11.00;63.77;102328.94;5102028;27;46505;-58
2023/11/23 02:33:36;;;;;;;;;10.25;9.50;;;;;10.99;63.69;102324.56;5102144;27;72075;-57
2023/11/23 02:36:02;;;;;;;;;15.50;11.00;;;;;11.01;63.48;102324.56;5098516;27;45295;-58
2023/11/23 02:38:29;;;;;;;;;12.00;9.25;;;;;11.01;63.76;102321.97;5093418;27;45374;-57
2023/11/23 02:40:54;;;;;;;;;11.00;9.75;;;;;11.02;63.58;102321.97;5101407;27;45473;-58
2023/11/23 02:43:20;;;;;;;;;13.25;9.50;;;;;11.01;63.75;102321.97;5103368;27;45202;-57
2023/11/23 02:45:45;;;;;;;;;13.00;9.00;;;;;11.02;64.18;102314.09;5083529;27;45272;-57
2023/11/23 02:48:11;;;;;;;;;10.50;8.50;;;;;11.05;64.13;102318.47;5102391;27;45445;-58
2023/11/23 02:50:36;;;;;;;;;14.25;10.00;;;;;11.06;64.14;102311.47;5099980;27;46154;-57
2023/11/23 02:53:03;;;;;;;;;7.25;5.00;;;;;11.06;63.94;102307.09;5099691;27;70687;-58
2023/11/23 02:55:28;;;;;;;;;14.50;9.00;;;;;11.05;64.26;102304.47;5102006;27;46452;-57
2023/11/23 02:57:54;;;;;;;;;14.75;10.75;;;;;11.07;64.55;102310.59;5101792;27;73293;-57
2023/11/23 03:00:19;;;;;;;;;10.50;9.25;;;;;11.07;64.29;102310.59;5097318;27;47199;-57
2023/11/23 03:02:45;;;;;;;;;11.75;10.00;;;;;11.09;64.51;102311.47;5102065;27;66964;-58
2023/11/23 03:05:10;;;;;;;;;14.75;10.25;;;;;11.11;64.30;102309.72;5090044;27;45300;-58
2023/11/23 03:07:36;;;;;;;;;13.50;10.25;;;;;11.12;64.29;102303.56;5096163;27;45588;-57
2023/11/23 03:10:01;;;;;;;;;14.25;10.00;;;;;11.12;64.50;102308.81;5099482;27;74274;-57
2023/11/23 03:12:27;;;;;;;;;16.75;9.50;;;;;11.10;64.62;102308.84;5101675;27;45394;-57
2023/11/23 03:14:52;;;;;;;;;10.00;8.25;;;;;11.11;64.69;102309.72;5100100;27;45330;-58
2023/11/23 03:17:19;;;;;;;;;8.75;6.50;;;;;11.11;64.52;102310.56;5099387;27;72414;-58
2023/11/23 03:19:44;;;;;;;;;9.75;8.00;;;;;11.10;64.85;102308.84;5101453;27;46310;-58
2023/11/23 03:22:09;;;;;;;;;16.50;10.00;;;;;11.09;64.86;102309.72;5099537;27;52840;-58
2023/11/23 03:24:35;;;;;;;;;15.50;8.75;;;;;11.08;64.62;102312.34;5095524;27;67524;-58
2023/11/23 03:27:00;;;;;;;;;10.25;9.00;;;;;11.09;65.01;102320.19;5100270;27;45386;-58
2023/11/23 03:29:26;;;;;;;;;11.00;8.50;;;;;11.12;64.98;102324.53;5100577;27;74402;-57
2023/11/23 03:31:51;;;;;;;;;8.25;8.00;;;;;11.13;64.77;102318.44;5101614;27;45291;-58
2023/11/23 03:34:16;;;;;;;;;13.00;9.25;;;;;11.12;65.13;102317.56;5101023;27;45497;-58
2023/11/23 03:36:43;;;;;;;;;8.50;8.25;;;;;11.12;65.24;102316.69;5093409;27;73152;-57
2023/11/23 03:39:08;;;;;;;;;13.00;13.00;;;;;11.09;65.26;102309.72;5096806;27;46934;-57
2023/11/23 03:41:34;;;;;;;;;12.00;9.50;;;;;11.09;65.16;102311.47;5100946;27;72226;-57
2023/11/23 03:43:59;;;;;;;;;13.25;9.00;;;;;11.08;65.24;102313.19;5099615;27;45361;-58
2023/11/23 03:46:25;;;;;;;;;9.75;8.50;;;;;11.11;65.40;102317.56;5102210;27;45303;-57
2023/11/23 03:48:50;;;;;;;;;18.75;11.00;;;;;11.13;65.26;102318.44;5100858;27;71792;-58
2023/11/23 03:51:15;;;;;;;;;12.50;8.75;;;;;11.13;65.32;102308.81;5098555;27;72006;-58
2023/11/23 03:53:41;;;;;;;;;13.25;9.75;;;;;11.13;65.55;102307.94;5097156;27;67749;-58
2023/11/23 03:56:07;;;;;;;;;9.75;7.25;;;;;11.14;65.44;102309.72;5083572;27;45293;-58
2023/11/23 03:58:32;;;;;;;;;12.50;9.75;;;;;11.13;65.59;102310.56;5097796;27;46035;-58
2023/11/23 04:00:59;;;;;;;;;12.00;9.25;;;;;11.13;65.40;102308.81;5074287;28;45283;-57
2023/11/23 04:03:25;;;;;;;;;11.75;9.00;;;;;11.13;65.45;102307.94;5078249;27;45523;-57
2023/11/23 04:05:50;;;;;;;;;13.50;12.25;;;;;11.14;65.35;102307.94;5081374;27;45423;-58
2023/11/23 04:08:16;;;;;;;;;10.75;8.50;;;;;11.14;65.69;102307.09;5100260;27;46102;-58
2023/11/23 04:10:41;;;;;;;;;11.00;9.50;;;;;11.16;65.84;102298.34;5101436;27;45279;-58
2023/11/23 04:13:07;;;;;;;;;17.75;9.50;;;;;11.18;65.77;102296.56;5098763;27;45633;-58
2023/11/23 04:15:32;;;;;;;;;16.25;10.50;;;;;11.20;66.09;102296.56;5097618;27;45348;-58
2023/11/23 04:17:57;;;;;;;;;13.50;8.00;;;;;11.21;65.83;102299.19;5098665;27;45484;-58
2023/11/23 04:20:23;;;;;;;;;12.75;9.00;;;;;11.22;66.08;102305.28;5101291;27;58043;-58
2023/11/23 04:22:48;;;;;;;;;7.75;7.00;;;;;11.24;66.02;102300.91;5071521;27;69979;-58
2023/11/23 04:25:13;;;;;;;;;10.00;7.00;;;;;11.24;66.12;102297.41;5099617;27;45261;-58
2023/11/23 04:27:39;;;;;;;;;12.00;9.75;;;;;11.24;66.22;102297.41;5084153;27;72724;-58
2023/11/23 04:30:05;;;;;;;;;14.25;7.75;;;;;11.25;66.23;102301.78;5100666;27;72965;-58
2023/11/23 04:32:32;;;;;;;;;10.50;8.75;;;;;11.23;65.96;102295.69;5101340;27;45552;-58
2023/11/23 04:34:58;;;;;;;;;7.50;5.75;;;;;11.24;66.37;102302.66;5098716;27;45307;-58
2023/11/23 04:37:23;;;;;;;;;10.00;8.25;;;;;11.20;66.35;102289.56;5070620;27;66118;-57
2023/11/23 04:39:50;;;;;;;;;11.75;8.00;;;;;11.20;66.45;102301.81;5100965;27;45331;-57
2023/11/23 04:42:16;;;;;;;;;15.50;8.00;;;;;11.20;66.54;102305.28;5101416;27;45304;-58
2023/11/23 04:44:41;;;;;;;;;12.00;9.00;;;;;11.21;66.49;102304.44;5099320;27;49751;-57
2023/11/23 04:47:06;;;;;;;;;11.25;9.00;;;;;11.24;66.82;102295.66;5087442;27;73043;-58
2023/11/23 04:49:32;;;;;;;;;8.25;6.00;;;;;11.25;66.79;102297.41;5082933;27;45326;-58
2023/11/23 04:51:57;;;;;;;;;9.00;7.75;;;;;11.24;67.03;102293.03;5098315;27;45355;-58
2023/11/23 04:54:23;;;;;;;;;12.00;8.50;;;;;11.24;66.64;102300.91;5101039;27;49777;-58
2023/11/23 04:56:50;;;;;;;;;8.25;6.25;;;;;11.24;67.03;102297.41;5100372;27;45296;-58
2023/11/23 04:59:16;;;;;;;;;14.00;7.25;;;;;11.22;67.32;102300.03;5100191;27;45857;-58
2023/11/23 05:01:41;;;;;;;;;11.00;7.50;;;;;11.23;67.56;102304.41;5100881;27;45318;-58
2023/11/23 05:04:07;;;;;;;;;11.00;7.00;;;;;11.24;67.44;102297.41;5092796;27;72765;-58
2023/11/23 05:06:32;;;;;;;;;8.00;8.00;;;;;11.26;67.58;102304.41;5088843;27;46361;-58
2023/11/23 05:08:57;;;;;;;;;13.50;7.50;;;;;11.27;67.69;102300.91;5082000;27;45339;-58
2023/11/23 05:11:23;;;;;;;;;7.00;6.00;;;;;11.32;67.72;102308.75;5097021;27;66959;-58
2023/11/23 05:13:48;;;;;;;;;14.25;8.75;;;;;11.31;67.44;102307.00;5098964;27;45281;-59
2023/11/23 05:16:14;;;;;;;;;7.75;7.75;;;;;11.32;67.41;102314.00;5098803;27;45438;-58
2023/11/23 05:18:40;;;;;;;;;9.00;8.00;;;;;11.33;68.01;102318.34;5082523;27;45277;-58
2023/11/23 05:21:06;;;;;;;;;7.50;6.50;;;;;11.32;67.91;102312.22;5098643;27;45441;-58
2023/11/23 05:23:31;;;;;;;;;12.00;9.00;;;;;11.33;67.78;102308.75;5100276;27;45210;-58
2023/11/23 05:25:57;;;;;;;;;10.25;8.75;;;;;11.34;67.56;102302.59;5093675;27;74366;-58
2023/11/23 05:28:22;;;;;;;;;8.50;6.50;;;;;11.34;68.14;102297.38;5087733;27;45432;-59
2023/11/23 05:30:47;;;;;;;;;10.75;10.00;;;;;11.36;67.96;102292.97;5097429;27;65156;-58
2023/11/23 05:33:13;;;;;;;;;9.50;7.00;;;;;11.32;67.87;102280.78;5099394;27;74168;-58
2023/11/23 05:35:38;;;;;;;;;10.50;9.00;;;;;11.37;68.40;102291.25;5098823;27;70283;-59
2023/11/23 05:38:03;;;;;;;;;11.75;6.75;;;;;11.38;68.49;102293.88;5089323;27;72192;-58
2023/11/23 05:40:29;;;;;;;;;12.00;7.75;;;;;11.39;68.61;102289.50;5098789;27;45394;-58
2023/11/23 05:42:54;;;;;;;;;12.50;8.25;;;;;11.43;68.43;102285.09;5100007;27;45464;-58
2023/11/23 05:45:19;;;;;;;;;8.50;8.00;;;;;11.45;68.28;102291.19;5099882;27;54063;-59
2023/11/23 05:47:46;;;;;;;;;11.75;7.00;;;;;11.44;68.13;102295.59;5098255;27;45328;-58
2023/11/23 05:50:11;;;;;;;;;9.00;8.50;;;;;11.43;68.26;102296.44;5101678;27;45414;-59
2023/11/23 05:52:37;;;;;;;;;8.00;7.00;;;;;11.46;68.58;102285.09;5104125;27;45342;-59
2023/11/23 05:55:02;;;;;;;;;12.75;8.50;;;;;11.46;68.08;102290.34;5101414;27;46151;-58
2023/11/23 05:57:28;;;;;;;;;11.25;7.50;;;;;11.46;68.80;102285.09;5099034;27;45274;-58
2023/11/23 05:59:54;;;;;;;;;8.00;7.00;;;;;11.46;68.43;102285.94;5096666;27;45460;-58
2023/11/23 06:02:19;;;;;;;;;8.00;7.00;;;;;11.49;68.87;102287.69;5092364;27;45513;-58
2023/11/23 06:04:45;;;;;;;;;9.75;7.00;;;;;11.50;68.57;102279.81;5099823;27;57968;-58
2023/11/23 06:07:10;;;;;;;;;8.00;6.75;;;;;11.51;68.70;102278.94;5096123;27;45296;-58
2023/11/23 06:09:36;;;;;;;;;7.75;7.75;;;;;11.53;68.63;102281.56;5103742;27;45266;-58
2023/11/23 06:12:04;;;;;;;;;11.75;7.25;;;;;11.52;68.57;102272.78;5100478;27;45451;-58
2023/11/23 06:14:30;;;;;;;;;9.00;7.75;;;;;11.54;69.09;102273.69;5103276;27;46303;-58
2023/11/23 06:16:55;;;;;;;;;13.75;11.25;;;;;11.52;69.26;102270.19;5100614;27;45723;-58
2023/11/23 06:19:21;;;;;;;;;12.25;7.50;;;;;11.54;68.96;102273.69;5102566;27;68165;-59
2023/11/23 06:21:46;;;;;;;;;12.75;8.00;;;;;11.57;68.82;102273.63;5099931;27;45573;-59
2023/11/23 06:24:11;;;;;;;;;12.00;9.00;;;;;11.58;69.51;102271.91;5084101;27;46198;-58
2023/11/23 06:26:37;;;;;;;;;11.00;8.00;;;;;11.57;69.20;102271.00;5093487;27;60358;-58
2023/11/23 06:29:02;;;;;;;;;11.00;8.25;;;;;11.58;69.72;102267.53;5077234;27;65032;-58
2023/11/23 06:31:28;;;;;;;;;12.25;10.00;;;;;11.58;69.38;102274.53;5102312;27;45570;-59
2023/11/23 06:33:53;;;;;;;;;14.75;10.75;;;;;11.57;69.54;102267.53;5102057;27;45213;-58
2023/11/23 06:36:19;;;;;;;;;12.00;9.75;;;;;11.57;69.74;102272.78;5079950;28;45283;-59
2023/11/23 06:38:44;;;;;;;;;8.50;5.25;;;;;11.54;69.76;102276.31;5078359;27;45277;-58
2023/11/23 06:41:22;;;;;;;;;12.50;9.00;;;;;11.57;70.32;102280.66;5101749;27;45409;-59
2023/11/23 06:43:48;;;;;;;;;11.50;9.25;;;;;11.58;70.24;102278.00;5100251;27;45334;-59
2023/11/23 06:46:15;;;;;;;;;18.25;12.75;;;;;11.59;70.37;102274.50;5101845;27;45277;-58
2023/11/23 06:48:41;;;;;;;;;59.25;41.50;;;;;11.61;70.11;102278.88;5101634;27;45774;-58
2023/11/23 06:51:06;;;;;;;;;11.25;8.25;;;;;11.60;70.31;102280.63;5099939;27;73000;-59
2023/11/23 06:53:32;;;;;;;;;7.75;7.25;;;;;11.60;70.68;102285.88;5102183;27;45950;-58
2023/11/23 06:56:02;;;;;;;;;12.25;11.00;;;;;11.59;70.52;102284.13;5102635;27;45456;-58
2023/11/23 06:58:28;;;;;;;;;9.50;9.00;;;;;11.57;70.74;102280.66;5102116;27;45351;-58
2023/11/23 07:00:53;;;;;;;;;9.50;7.00;;;;;11.62;70.83;102293.75;5078760;28;45485;-58
2023/11/23 07:03:21;;;;;;;;;12.75;9.00;;;;;11.62;71.10;102288.50;5095053;27;75552;-58
2023/11/23 07:05:47;;;;;;;;;7.00;5.00;;;;;11.62;71.10;102286.72;5098038;27;45430;-58
2023/11/23 07:08:12;;;;;;;;;9.50;7.00;;;;;11.63;71.44;102290.22;5097598;27;45363;-58
2023/11/23 07:10:39;;;;;;;;;10.00;8.00;;;;;11.63;71.51;102288.47;5101625;27;71953;-58
2023/11/23 07:13:05;;;;;;;;;9.75;7.00;;;;;11.63;71.44;102285.84;5096066;27;46138;-58
2023/11/23 07:15:30;;;;;;;;;8.75;6.50;;;;;11.63;71.65;102288.47;5101835;27;72787;-59
2023/11/23 07:17:58;;;;;;;;;7.50;7.00;;;;;11.59;71.74;102279.75;5080982;27;68113;-59
2023/11/23 07:20:24;;;;;;;;;9.00;8.50;;;;;11.65;71.78;102283.19;5099139;27;45277;-58
2023/11/23 07:22:49;;;;;;;;;11.25;9.00;;;;;11.67;71.89;102291.94;5102136;27;46486;-59
2023/11/23 07:25:14;;;;;;;;;9.75;6.00;;;;;11.68;71.80;102276.19;5086265;27;66638;-59
2023/11/23 07:27:40;;;;;;;;;9.25;7.75;;;;;11.69;71.41;102267.44;5086357;27;60533;-59
2023/11/23 07:30:06;;;;;;;;;8.50;8.50;;;;;11.70;71.54;102271.81;5090315;27;45490;-58
2023/11/23 07:32:32;;;;;;;;;7.00;6.00;;;;;11.72;71.86;102279.66;5101118;27;45970;-58
2023/11/23 07:34:58;;;;;;;;;11.50;6.00;;;;;11.72;71.77;102277.94;5100662;27;45259;-59
2023/11/23 07:37:23;;;;;;;;;11.00;8.00;;;;;11.75;72.12;102277.03;5090977;27;45293;-59
2023/11/23 07:39:49;;;;;;;;;12.50;8.75;;;;;11.78;71.96;102285.75;5101327;27;71982;-59
2023/11/23 07:42:15;;;;;;;;;9.50;8.50;;;;;11.80;71.90;102277.88;5099768;27;46408;-58
2023/11/23 07:44:41;;;;;;;;;8.25;7.25;;;;;11.84;71.93;102270.84;5083889;27;72705;-59
2023/11/23 07:47:10;;;;;;;;;11.25;8.50;;;;;11.87;72.18;102281.31;5102086;27;45259;-59
2023/11/23 07:49:36;;;;;;;;;10.75;7.25;;;;;11.90;72.19;102278.69;5100109;27;45318;-59
2023/11/23 07:52:01;;;;;;;;;9.50;8.00;;;;;11.93;72.38;102283.91;5081303;27;50778;-59
2023/11/23 07:54:27;;;;;;;;;8.50;5.00;;;;;11.95;71.77;102285.66;5095450;27;49159;-59
2023/11/23 07:56:53;;;;;;;;;9.25;8.00;;;;;11.98;72.07;102284.75;5097293;27;45275;-58
2023/11/23 07:59:18;;;;;;;;;10.75;9.75;;;;;11.99;72.33;102281.25;5065564;27;45508;-59
2023/11/23 08:01:44;;;;;;;;;9.00;9.00;;;;;12.02;72.28;102291.72;5098839;27;46466;-59
2023/11/23 08:04:11;;;;;;;;;7.00;6.25;;;;;12.05;72.11;102290.81;5082348;27;45400;-59
2023/11/23 08:06:37;;;;;;;;;9.50;8.00;;;;;12.06;71.91;102287.34;5075931;27;45280;-59
2023/11/23 08:09:04;;;;;;;;;12.00;8.00;;;;;12.09;71.85;102284.66;5083525;27;45479;-59
2023/11/23 08:11:30;;;;;;;;;10.00;6.75;;;;;12.10;72.28;102287.28;5081418;27;47679;-59
2023/11/23 08:13:55;;;;;;;;;12.00;6.75;;;;;12.12;72.50;102282.88;5098031;27;45347;-56
2023/11/23 08:16:21;;;;;;;;;12.50;7.75;;;;;12.12;71.88;102282.88;5098776;27;69152;-59
2023/11/23 08:18:46;;;;;;;;;9.25;7.00;;;;;12.15;71.92;102284.63;5101472;27;47303;-59
2023/11/23 08:21:11;;;;;;;;;66.75;48.00;;;;;12.17;72.48;102288.09;5082297;27;45455;-59
2023/11/23 08:23:37;;;;;;;;;44.75;32.25;;;;;12.20;72.45;102292.44;5081379;27;46640;-59
2023/11/23 08:26:03;;;;;;;;;15.00;9.75;;;;;12.23;72.32;102298.53;5095414;27;47762;-59
2023/11/23 08:28:29;;;;;;;;;9.00;8.75;;;;;12.27;72.69;102297.66;5089479;27;45168;-59
2023/11/23 08:30:54;;;;;;;;;8.00;8.00;;;;;12.28;72.40;102302.00;5099518;27;45212;-59
2023/11/23 08:33:19;;;;;;;;;8.50;8.00;;;;;12.33;72.54;102309.84;5080366;27;45318;-59
2023/11/23 08:35:45;;;;;;;;;11.50;7.50;;;;;12.35;72.46;102306.31;5081445;27;67274;-57
2023/11/23 08:38:13;;;;;;;;;11.00;6.25;;;;;12.38;72.80;102299.28;5089527;27;59197;-57
2023/11/23 08:40:39;;;;;;;;;16.25;9.50;;;;;12.40;72.54;102305.41;5099361;27;46960;-57
2023/11/23 08:43:06;;;;;;;;;5.75;5.25;;;;;12.42;73.03;102299.25;5101373;27;45378;-58
2023/11/23 08:45:31;;;;;;;;;12.25;10.00;;;;;12.46;72.93;102306.19;5101017;27;46535;-57
2023/11/23 08:47:56;;;;;;;;;12.75;9.00;;;;;12.52;72.69;102306.16;5098399;27;45321;-58
2023/11/23 08:50:22;;;;;;;;;9.75;7.00;;;;;12.57;72.67;102308.75;5094190;27;73853;-58
2023/11/23 08:52:47;;;;;;;;;13.75;9.00;;;;;12.60;72.97;102313.09;5074856;27;73086;-58
2023/11/23 08:55:13;;;;;;;;;11.25;8.25;;;;;12.64;72.69;102310.41;5102815;27;46877;-58
2023/11/23 08:57:40;;;;;;;;;9.50;7.00;;;;;12.66;72.66;102308.66;5094061;27;45434;-59
2023/11/23 09:00:10;;;;;;;;;7.25;6.50;;;;;12.67;72.99;102306.88;5085139;27;47161;-59
2023/11/23 09:02:37;;;;;;;;;9.50;5.75;;;;;12.67;73.23;102310.38;5083730;27;45842;-59
2023/11/23 09:05:09;;;;;;;;;8.50;6.50;;;;;12.69;73.71;102310.34;5098580;27;45339;-59
2023/11/23 09:07:34;;;;;;;;;8.50;6.75;;;;;12.72;73.60;102318.22;5072212;28;45447;-59
2023/11/23 09:09:59;;;;;;;;;10.75;8.50;;;;;12.74;73.66;102316.44;5085629;27;46216;-59
2023/11/23 09:12:27;;;;;;;;;8.50;7.00;;;;;12.72;73.77;102312.97;5083059;27;45417;-59
2023/11/23 09:14:56;;;;;;;;;9.50;6.50;;;;;12.73;74.13;102325.22;5085711;27;45226;-59
2023/11/23 09:17:22;;;;;;;;;11.00;9.00;;;;;12.73;74.19;102326.06;5074897;28;45266;-59
2023/11/23 09:19:47;;;;;;;;;8.00;7.75;;;;;12.75;74.39;102318.19;5084499;27;45198;-59
2023/11/23 09:22:13;;;;;;;;;6.50;6.50;;;;;12.76;74.36;102319.91;5081544;27;73010;-59
2023/11/23 09:24:38;;;;;;;;;9.75;7.75;;;;;12.73;74.42;102320.81;5084491;27;45376;-59
2023/11/23 09:27:06;;;;;;;;;13.00;9.00;;;;;12.78;74.30;102330.41;5080823;27;45426;-59
2023/11/23 09:29:31;;;;;;;;;9.50;7.00;;;;;12.78;74.47;102330.41;5079155;27;45489;-59
2023/11/23 09:31:57;;;;;;;;;11.25;9.25;;;;;12.78;74.43;102326.00;5100620;27;45284;-59
2023/11/23 09:34:22;;;;;;;;;11.00;8.50;;;;;12.81;74.58;102330.38;5099143;27;45272;-59
2023/11/23 09:36:49;;;;;;;;;10.75;9.75;;;;;12.78;74.34;102331.25;5091402;27;45489;-59
2023/11/23 09:39:17;;;;;;;;;13.00;11.00;;;;;12.78;74.55;102335.66;5096844;27;55057;-59
2023/11/23 09:41:44;;;;;;;;;18.00;10.50;;;;;12.78;74.79;102338.28;5098831;27;45271;-59
2023/11/23 09:44:10;;;;;;;;;16.00;10.75;;;;;12.75;74.88;102333.06;5080271;27;45335;-59
2023/11/23 09:46:38;;;;;;;;;15.50;10.50;;;;;12.76;75.19;102327.78;5100357;27;45536;-58
2023/11/23 09:49:07;;;;;;;;;9.00;7.75;;;;;12.80;75.22;102326.91;5099996;27;46331;-58
2023/11/23 09:51:32;;;;;;;;;14.25;10.75;;;;;12.82;75.35;102322.50;5099943;27;45235;-58
2023/11/23 09:54:00;;;;;;;;;14.25;13.00;;;;;12.86;75.50;102328.56;5097705;27;45524;-58
2023/11/23 09:56:26;;;;;;;;;14.00;12.50;;;;;12.87;75.29;102336.44;5079363;27;45449;-58
2023/11/23 09:58:52;;;;;;;;;14.50;10.50;;;;;12.88;75.45;102338.16;5098242;27;47070;-58
2023/11/23 10:01:18;;;;;;;;;14.75;10.00;;;;;12.94;75.22;102336.38;5099247;27;73107;-58
2023/11/23 10:03:47;;;;;;;;;10.00;8.50;;;;;12.98;75.16;102330.19;5081168;27;45263;-58
2023/11/23 10:06:13;;;;;;;;;13.00;12.00;;;;;13.01;75.28;102327.53;5074496;27;45523;-58
2023/11/23 10:08:40;;;;;;;;;15.50;12.00;;;;;13.07;75.05;102327.47;5080482;27;74065;-60
2023/11/23 10:11:06;;;;;;;;;8.75;8.25;;;;;13.15;74.89;102322.97;5081249;27;45296;-58
2023/11/23 10:13:31;;;;;;;;;14.25;11.25;;;;;13.23;75.00;102318.50;5097625;27;45377;-58
2023/11/23 10:15:57;;;;;;;;;13.75;12.00;;;;;13.25;74.95;102321.97;5077756;27;73222;-59
2023/11/23 10:18:35;;;;;;;;;16.75;10.75;;;;;13.25;74.66;102326.38;5098752;27;73568;-58
2023/11/23 10:21:00;;;;;;;;;13.25;10.25;;;;;13.28;74.34;102323.72;5097398;27;45851;-59
2023/11/23 10:23:26;;;;;;;;;11.00;9.25;;;;;13.30;74.06;102314.03;5075940;27;71036;-58
2023/11/23 10:25:51;;;;;;;;;15.75;14.00;;;;;13.33;74.04;102300.00;5095109;27;45255;-58
2023/11/23 10:28:19;;;;;;;;;15.75;12.25;;;;;13.38;74.05;102303.44;5085967;27;46263;-59
2023/11/23 10:30:45;;;;;;;;;15.75;12.75;;;;;13.44;74.20;102300.75;5081140;27;45326;-58
2023/11/23 10:33:11;;;;;;;;;18.00;14.50;;;;;13.48;74.23;102294.53;5097756;27;45370;-58
2023/11/23 10:35:41;;;;;;;;;13.75;12.00;;;;;13.53;74.14;102287.47;5080992;27;45514;-58
2023/11/23 10:38:07;;;;;;;;;12.75;11.00;;;;;13.58;73.89;102279.47;5055228;27;46216;-58
2023/11/23 10:40:33;;;;;;;;;13.75;12.25;;;;;13.62;73.52;102279.41;5072486;27;45462;-59
2023/11/23 10:43:01;;;;;;;;;24.75;22.75;;;;;13.65;73.61;102275.88;5101894;27;45348;-59
2023/11/23 10:45:27;;;;;;;;;17.50;14.00;;;;;13.69;73.32;102267.06;5100611;27;45633;-59
2023/11/23 10:47:53;;;;;;;;;12.50;12.00;;;;;13.74;73.24;102249.44;5100854;27;45343;-59
2023/11/23 10:50:21;;;;;;;;;12.50;10.75;;;;;13.80;73.21;102259.00;5096125;27;45432;-58
2023/11/23 10:52:47;;;;;;;;;9.50;8.25;;;;;13.87;73.23;102250.09;5085107;27;45425;-59
2023/11/23 10:55:13;;;;;;;;;14.75;12.25;;;;;13.92;72.82;102245.63;5084135;27;45443;-58
2023/11/23 10:57:42;;;;;;;;;13.25;12.00;;;;;13.97;72.27;102238.53;5102710;27;46991;-58
2023/11/23 11:00:15;;;;;;;;;12.00;9.50;;;;;13.99;72.33;102236.72;5067362;27;45421;-59
2023/11/23 11:02:41;;;;;;;;;11.75;9.25;;;;;13.99;72.48;102223.56;5084711;27;45463;-58
2023/11/23 11:05:28;;;;;;;;;9.00;8.25;;;;;14.05;71.97;102231.34;5081070;27;45459;-58
2023/11/23 11:08:01;;;;;;;;;11.75;10.00;;;;;14.09;72.05;102220.78;5096236;27;45390;-59
2023/11/23 11:10:28;;;;;;;;;10.25;10.25;;;;;14.12;72.11;102218.94;5098958;27;45461;-59